首页
METAR-TAF:

METAR-TAF

机场 :

阿道弗·苏亚雷斯马德里-巴拉哈斯机场

马德里, 西班牙

纬度: 40-27N, 经度: 003-33W, 海拔: 609米

当前天气观测

该预报发布于19分钟前的02:00 UTC
风速3节,风向
温度 22°C
湿度 69%
气压 1018 hPa
能见度10公里或以上
1500米以下无云,无积雨云

METAR: LEMD 230200Z 35003KT CAVOK 22/16 Q1018 NOSIG

时间: 04:19 (02:19 UTC)

预报

该预报发布于3小时和19分钟前的23:00 UTC
预报有效从23日的 00点(UTC)到 24日的 06点(UTC)
风速5节,风向多变
能见度10公里或以上
1500米以下无云,无积雨云
几率 40% :
短暂存在
从 23日的 00点(UTC)到 23日的 08点(UTC)
风速7节,风向北转东北
几率 40% :
短暂存在
从 23日的 08点(UTC)到 23日的 13点(UTC)
风速7节,风向南转南东
几率 40% :
短暂存在
从 23日的 15点(UTC)到 24日的 03点(UTC)
风速10节,风向
短暂存在
从 23日的 12点(UTC)到 23日的 15点(UTC)
风速7节,风向
短暂存在
从 23日的 16点(UTC)到 24日的 05点(UTC)
风速7节,风向

TAF: LEMD 222300Z 2300/2406 VRB05KT CAVOK TX36/2315Z TN19/2306Z PROB40 TEMPO 2300/2308 02007KT PROB40 TEMPO 2308/2313 15007KT PROB40 TEMPO 2315/2403 01010KT TEMPO 2312/2315 17007KT TEMPO 2316/2405 01007KT

超过4000个机场的气象观测和天气预报(METAR&TAF报告)。

可查询的气象台以黄色和红色小点在地图上表示。

将鼠标移到小点上方,可查看气象台名称。

然后点击查看天气观测和预报。

如需切换地图:点击带黑十字的绿色按钮放大地图;点击带横线的绿色按钮缩小地图;或者点击绿色箭头查看邻近地区的地图。


METAR-TAF: